Time,TemperatureF,DewpointF,PressureIn,WindDirection,WindDirectionDegrees,WindSpeedMPH,WindSpeedGustMPH,Humidity,HourlyPrecipIn,Conditions,Clouds,dailyrainin,SoftwareType,DateUTC
2018-01-17 00:08:00,51.0,49.0,30.12,NE,40,0.0,0.0,92,0.00,,,0.00,weatherlink.com 1.10,2018-01-17 08:08:00,
2018-01-17 00:23:00,50.8,49.0,30.12,NE,40,0.0,0.0,92,0.00,,,0.00,weatherlink.com 1.10,2018-01-17 08:23:00,
2018-01-17 00:38:00,50.7,49.0,30.12,NE,40,0.0,0.0,92,0.00,,,0.00,weatherlink.com 1.10,2018-01-17 08:38:00,
2018-01-17 00:53:00,50.4,48.0,30.12,NE,40,0.0,2.0,92,0.00,,,0.00,weatherlink.com 1.10,2018-01-17 08:53:00,
2018-01-17 01:08:00,50.1,48.0,30.12,NE,40,0.0,0.0,92,0.00,,,0.00,weatherlink.com 1.10,2018-01-17 09:08:00,
2018-01-17 01:23:00,50.0,48.0,30.12,NE,40,0.0,0.0,92,0.00,,,0.00,weatherlink.com 1.10,2018-01-17 09:23:00,
2018-01-17 01:38:00,50.1,48.0,30.12,NE,40,0.0,0.0,92,0.00,,,0.00,weatherlink.com 1.10,2018-01-17 09:38:00,
2018-01-17 01:53:00,50.3,48.0,30.12,NE,40,0.0,2.0,92,0.00,,,0.00,weatherlink.com 1.10,2018-01-17 09:53:00,
2018-01-17 02:08:00,50.3,48.0,30.11,North,360,0.0,0.0,92,0.00,,,0.00,weatherlink.com 1.10,2018-01-17 10:08:00,
2018-01-17 02:23:00,51.0,49.0,30.12,NNE,21,0.0,2.0,92,0.00,,,0.00,weatherlink.com 1.10,2018-01-17 10:23:00,
2018-01-17 02:38:00,51.2,49.0,30.12,NNW,343,0.0,3.0,91,0.00,,,0.00,weatherlink.com 1.10,2018-01-17 10:38:00,
2018-01-17 02:53:00,51.4,49.0,30.11,North,10,0.0,0.0,90,0.00,,,0.00,weatherlink.com 1.10,2018-01-17 10:53:00,
2018-01-17 03:08:00,51.3,49.0,30.11,NNE,20,0.0,0.0,90,0.00,,,0.00,weatherlink.com 1.10,2018-01-17 11:08:00,
2018-01-17 03:23:00,51.0,48.0,30.11,NNE,20,0.0,0.0,90,0.00,,,0.00,weatherlink.com 1.10,2018-01-17 11:23:00,
2018-01-17 03:38:00,50.4,48.0,30.11,NNE,20,0.0,0.0,90,0.00,,,0.00,weatherlink.com 1.10,2018-01-17 11:38:00,
2018-01-17 03:53:00,50.1,48.0,30.11,NE,34,0.0,0.0,91,0.00,,,0.00,weatherlink.com 1.10,2018-01-17 11:53:00,
2018-01-17 04:08:00,50.6,48.0,30.11,NNE,29,0.0,0.0,91,0.00,,,0.00,weatherlink.com 1.10,2018-01-17 12:08:00,
2018-01-17 04:23:00,51.0,48.0,30.10,NNE,29,0.0,0.0,90,0.00,,,0.00,weatherlink.com 1.10,2018-01-17 12:23:00,
2018-01-17 04:38:00,51.6,49.0,30.11,NNE,30,0.0,0.0,89,0.00,,,0.00,weatherlink.com 1.10,2018-01-17 12:38:00,
2018-01-17 04:53:00,51.5,48.0,30.10,NNE,30,0.0,0.0,89,0.00,,,0.00,weatherlink.com 1.10,2018-01-17 12:53:00,
2018-01-17 05:08:00,51.0,48.0,30.11,NNE,30,0.0,0.0,89,0.00,,,0.00,weatherlink.com 1.10,2018-01-17 13:08:00,
2018-01-17 05:23:00,50.6,48.0,30.11,NNE,30,0.0,0.0,90,0.00,,,0.00,weatherlink.com 1.10,2018-01-17 13:23:00,
2018-01-17 05:38:00,50.1,47.0,30.12,NNE,30,0.0,0.0,90,0.00,,,0.00,weatherlink.com 1.10,2018-01-17 13:38:00,
2018-01-17 05:53:00,49.3,47.0,30.12,NNE,30,0.0,0.0,91,0.00,,,0.00,weatherlink.com 1.10,2018-01-17 13:53:00,
2018-01-17 06:08:00,49.5,47.0,30.12,NNE,30,0.0,0.0,92,0.00,,,0.00,weatherlink.com 1.10,2018-01-17 14:08:00,
2018-01-17 06:23:00,49.8,48.0,30.12,NNE,30,0.0,0.0,92,0.00,,,0.00,weatherlink.com 1.10,2018-01-17 14:23:00,
2018-01-17 06:38:00,49.7,47.0,30.13,NNE,30,0.0,0.0,91,0.00,,,0.00,weatherlink.com 1.10,2018-01-17 14:38:00,
2018-01-17 06:53:00,49.5,47.0,30.14,NE,35,0.0,0.0,91,0.00,,,0.00,weatherlink.com 1.10,2018-01-17 14:53:00,
2018-01-17 07:23:00,49.8,47.0,30.12,NNE,30,0.0,3.0,91,0.01,,,0.01,weatherlink.com 1.10,2018-01-17 15:23:00,
2018-01-17 07:38:00,50.1,48.0,30.13,NNE,30,0.0,0.0,91,0.01,,,0.01,weatherlink.com 1.10,2018-01-17 15:38:00,
2018-01-17 07:53:00,50.5,48.0,30.13,NNE,30,0.0,0.0,91,0.01,,,0.01,weatherlink.com 1.10,2018-01-17 15:53:00,
2018-01-17 08:08:00,51.2,49.0,30.14,NNE,30,0.0,0.0,91,0.01,,,0.01,weatherlink.com 1.10,2018-01-17 16:08:00,
2018-01-17 08:23:00,52.5,50.0,30.15,NNE,30,0.0,0.0,91,0.00,,,0.01,weatherlink.com 1.10,2018-01-17 16:23:00,
2018-01-17 08:39:00,54.8,52.0,30.15,NNE,30,0.0,0.0,89,0.00,,,0.01,weatherlink.com 1.10,2018-01-17 16:39:00,
2018-01-17 08:54:00,57.2,53.0,30.16,NNE,30,0.0,0.0,85,0.00,,,0.01,weatherlink.com 1.10,2018-01-17 16:54:00,
2018-01-17 09:09:00,59.9,53.0,30.16,NNE,30,0.0,0.0,79,0.00,,,0.01,weatherlink.com 1.10,2018-01-17 17:09:00,
2018-01-17 09:24:00,61.8,54.0,30.17,West,271,0.0,0.0,75,0.00,,,0.01,weatherlink.com 1.10,2018-01-17 17:24:00,
2018-01-17 09:39:00,63.4,54.0,30.17,West,271,0.0,0.0,72,0.00,,,0.01,weatherlink.com 1.10,2018-01-17 17:39:00,
2018-01-17 09:54:00,65.3,56.0,30.17,WSW,254,0.0,0.0,71,0.00,,,0.01,weatherlink.com 1.10,2018-01-17 17:54:00,
2018-01-17 10:09:00,66.1,56.0,30.17,South,180,0.0,0.0,69,0.00,,,0.01,weatherlink.com 1.10,2018-01-17 18:09:00,
2018-01-17 10:24:00,67.0,55.0,30.17,South,180,0.0,0.0,66,0.00,,,0.01,weatherlink.com 1.10,2018-01-17 18:24:00,
2018-01-17 10:39:00,67.6,56.0,30.17,WSW,255,0.0,0.0,66,0.00,,,0.01,weatherlink.com 1.10,2018-01-17 18:39:00,
2018-01-17 10:54:00,68.7,56.0,30.17,WSW,245,0.0,0.0,65,0.00,,,0.01,weatherlink.com 1.10,2018-01-17 18:54:00,
2018-01-17 11:09:00,69.3,59.0,30.17,SSE,160,4.0,4.0,70,0.00,,,0.01,weatherlink.com 1.10,2018-01-17 19:09:00,
2018-01-17 11:24:00,68.6,58.0,30.17,SW,215,0.0,2.0,68,0.00,,,0.01,weatherlink.com 1.10,2018-01-17 19:24:00,
2018-01-17 11:39:00,68.3,59.0,30.16,WSW,252,0.0,3.0,71,0.00,,,0.01,weatherlink.com 1.10,2018-01-17 19:39:00,
2018-01-17 11:54:00,68.2,59.0,30.16,WSW,237,0.0,2.0,72,0.00,,,0.01,weatherlink.com 1.10,2018-01-17 19:54:00,
2018-01-17 12:09:00,68.3,59.0,30.15,SW,215,0.0,1.0,72,0.00,,,0.01,weatherlink.com 1.10,2018-01-17 20:09:00,
2018-01-17 12:31:00,69.5,58.0,30.14,WSW,258,0.0,4.0,67,0.00,,,0.01,weatherlink.com 1.10,2018-01-17 20:31:00,
2018-01-17 12:48:00,71.0,56.0,30.14,SW,236,1.0,4.0,59,0.00,,,0.01,weatherlink.com 1.10,2018-01-17 20:48:00,
2018-01-17 12:54:00,72.1,55.0,30.13,SSW,199,0.0,5.0,56,0.00,,,0.01,weatherlink.com 1.10,2018-01-17 20:54:00,
2018-01-17 13:18:00,72.8,54.0,30.13,SW,215,4.0,5.0,52,0.00,,,0.01,weatherlink.com 1.10,2018-01-17 21:18:00,
2018-01-17 13:24:00,73.6,50.0,30.12,SW,217,6.0,7.0,44,0.00,,,0.01,weatherlink.com 1.10,2018-01-17 21:24:00,
2018-01-17 13:55:00,74.1,51.0,30.11,SSW,200,2.0,7.0,44,0.00,,,0.01,weatherlink.com 1.10,2018-01-17 21:55:00,
2018-01-17 14:09:00,74.0,53.0,30.11,SW,225,0.0,5.0,48,0.00,,,0.01,weatherlink.com 1.10,2018-01-17 22:09:00,
2018-01-17 14:24:00,74.2,56.0,30.10,SW,232,2.0,5.0,53,0.00,,,0.01,weatherlink.com 1.10,2018-01-17 22:24:00,
2018-01-17 14:40:00,73.6,57.0,30.10,South,181,1.0,6.0,57,0.00,,,0.01,weatherlink.com 1.10,2018-01-17 22:40:00,
2018-01-17 14:55:00,72.8,56.0,30.10,SSE,164,0.0,6.0,55,0.00,,,0.01,weatherlink.com 1.10,2018-01-17 22:55:00,
2018-01-17 15:10:00,72.8,55.0,30.09,South,183,0.0,4.0,53,0.00,,,0.01,weatherlink.com 1.10,2018-01-17 23:10:00,
2018-01-17 15:25:00,73.3,53.0,30.09,WSW,257,0.0,7.0,50,0.00,,,0.01,weatherlink.com 1.10,2018-01-17 23:25:00,
2018-01-17 15:40:00,72.6,53.0,30.09,West,262,1.0,6.0,50,0.00,,,0.01,weatherlink.com 1.10,2018-01-17 23:40:00,
2018-01-17 15:55:00,72.4,53.0,30.09,South,178,1.0,4.0,50,0.00,,,0.01,weatherlink.com 1.10,2018-01-17 23:55:00,
2018-01-17 16:10:00,72.2,52.0,30.10,SW,223,0.0,1.0,50,0.00,,,0.01,weatherlink.com 1.10,2018-01-18 00:10:00,
2018-01-17 16:25:00,71.4,53.0,30.10,South,180,0.0,5.0,53,0.00,,,0.01,weatherlink.com 1.10,2018-01-18 00:25:00,
2018-01-17 16:40:00,70.0,56.0,30.10,SW,221,0.0,2.0,62,0.00,,,0.01,weatherlink.com 1.10,2018-01-18 00:40:00,
2018-01-17 16:55:00,68.4,57.0,30.10,SW,221,0.0,0.0,66,0.00,,,0.01,weatherlink.com 1.10,2018-01-18 00:55:00,
2018-01-17 17:10:00,66.0,56.0,30.10,South,191,0.0,2.0,71,0.00,,,0.01,weatherlink.com 1.10,2018-01-18 01:10:00,
2018-01-17 17:25:00,64.3,56.0,30.10,South,191,0.0,0.0,75,0.00,,,0.01,weatherlink.com 1.10,2018-01-18 01:25:00,
2018-01-17 17:40:00,63.0,56.0,30.10,South,191,0.0,0.0,77,0.00,,,0.01,weatherlink.com 1.10,2018-01-18 01:40:00,
2018-01-17 17:55:00,61.4,55.0,30.10,South,191,0.0,0.0,80,0.00,,,0.01,weatherlink.com 1.10,2018-01-18 01:55:00,
2018-01-17 18:10:00,60.3,54.0,30.10,South,191,0.0,0.0,80,0.00,,,0.01,weatherlink.com 1.10,2018-01-18 02:10:00,
2018-01-17 18:25:00,59.2,54.0,30.10,South,191,0.0,0.0,82,0.00,,,0.01,weatherlink.com 1.10,2018-01-18 02:25:00,
2018-01-17 18:40:00,58.2,53.0,30.10,South,170,0.0,0.0,83,0.00,,,0.01,weatherlink.com 1.10,2018-01-18 02:40:00,
2018-01-17 18:55:00,57.2,52.0,30.10,South,170,0.0,0.0,83,0.00,,,0.01,weatherlink.com 1.10,2018-01-18 02:55:00,
2018-01-17 19:10:00,56.0,51.0,30.10,ENE,71,0.0,0.0,84,0.00,,,0.01,weatherlink.com 1.10,2018-01-18 03:10:00,
2018-01-17 19:25:00,54.9,51.0,30.10,ENE,68,0.0,0.0,85,0.00,,,0.01,weatherlink.com 1.10,2018-01-18 03:25:00,
2018-01-17 19:40:00,54.6,50.0,30.10,ENE,68,0.0,0.0,85,0.00,,,0.01,weatherlink.com 1.10,2018-01-18 03:40:00,
2018-01-17 19:55:00,54.4,50.0,30.10,ENE,68,0.0,0.0,86,0.00,,,0.01,weatherlink.com 1.10,2018-01-18 03:55:00,
2018-01-17 20:10:00,53.6,50.0,30.10,ENE,68,0.0,0.0,86,0.00,,,0.01,weatherlink.com 1.10,2018-01-18 04:10:00,
2018-01-17 20:25:00,53.3,50.0,30.09,ENE,68,0.0,0.0,87,0.00,,,0.01,weatherlink.com 1.10,2018-01-18 04:25:00,
2018-01-17 20:40:00,52.9,49.0,30.10,ENE,68,0.0,0.0,87,0.00,,,0.01,weatherlink.com 1.10,2018-01-18 04:40:00,